Time;durP1;ratioP1;P1;durP2;ratioP2;P2;SDS_P1;SDS_P2;PMS_P1;PMS_P2;Temp;Humidity;BMP_temperature;BMP_pressure;BME280_temperature;BME280_humidity;BME280_pressure;Samples;Min_cycle;Max_cycle;Signal;HPM_P1;HPM_P2
2023/02/12 00:00:24;;;;;;;16.63;10.50;;;5.00;88.30;;;;;;5026336;28;20045;-61
2023/02/12 00:02:51;;;;;;;16.85;10.18;;;5.00;88.30;;;;;;5031227;28;20038;-60
2023/02/12 00:05:23;;;;;;;17.33;9.77;;;5.00;88.30;;;;;;5033925;28;20071;-60
2023/02/12 00:07:51;;;;;;;16.45;9.55;;;5.00;88.30;;;;;;5030180;28;20057;-61
2023/02/12 00:10:18;;;;;;;17.00;9.13;;;5.00;88.30;;;;;;5029345;28;20062;-62
2023/02/12 00:12:45;;;;;;;16.88;9.68;;;5.00;88.30;;;;;;5022297;28;20128;-61
2023/02/12 00:15:13;;;;;;;15.90;9.15;;;5.00;88.30;;;;;;5022430;28;20111;-61
2023/02/12 00:17:44;;;;;;;15.18;7.97;;;5.00;88.20;;;;;;5033984;28;20045;-61
2023/02/12 00:20:12;;;;;;;15.73;8.52;;;5.00;88.20;;;;;;5034519;28;20057;-61
2023/02/12 00:22:38;;;;;;;15.63;8.65;;;5.00;88.20;;;;;;5038517;28;20044;-61
2023/02/12 00:25:06;;;;;;;18.05;8.68;;;4.90;88.30;;;;;;5037783;28;20056;-61
2023/02/12 00:27:33;;;;;;;15.63;8.45;;;5.00;88.20;;;;;;5038643;28;20044;-61
2023/02/12 00:30:00;;;;;;;14.48;8.50;;;5.00;88.20;;;;;;5033377;28;20051;-61
2023/02/12 00:32:29;;;;;;;14.82;8.00;;;5.00;88.30;;;;;;5047280;28;20072;-62
2023/02/12 00:34:56;;;;;;;17.42;8.55;;;4.90;88.30;;;;;;5029639;28;20136;-61
2023/02/12 00:37:22;;;;;;;15.70;8.25;;;5.00;88.30;;;;;;5033854;28;20049;-62
2023/02/12 00:39:49;;;;;;;14.75;8.48;;;5.00;88.20;;;;;;5034951;28;20488;-61
2023/02/12 00:42:16;;;;;;;14.18;8.02;;;5.00;88.20;;;;;;5035638;28;20048;-62
2023/02/12 00:44:43;;;;;;;16.48;8.77;;;5.00;88.20;;;;;;5026249;28;20053;-62
2023/02/12 00:47:10;;;;;;;13.18;7.60;;;4.90;88.30;;;;;;5031008;28;20045;-63
2023/02/12 00:49:38;;;;;;;12.15;7.82;;;4.90;88.30;;;;;;5036439;28;20405;-61
2023/02/12 00:52:05;;;;;;;15.07;8.60;;;4.90;88.30;;;;;;5034222;28;20056;-61
2023/02/12 00:54:32;;;;;;;18.42;9.73;;;5.00;88.30;;;;;;5031880;28;20056;-61
2023/02/12 00:56:59;;;;;;;16.80;9.48;;;4.90;88.20;;;;;;5039493;28;20061;-61
2023/02/12 00:59:30;;;;;;;17.40;9.30;;;5.00;88.20;;;;;;5030796;28;20499;-63
2023/02/12 01:01:57;;;;;;;18.27;10.77;;;5.00;88.20;;;;;;5031177;28;20472;-61
2023/02/12 01:04:25;;;;;;;17.25;10.30;;;5.00;88.20;;;;;;5033260;28;20053;-62
2023/02/12 01:06:55;;;;;;;18.85;10.43;;;5.00;88.30;;;;;;5031712;28;20068;-62
2023/02/12 01:09:22;;;;;;;16.35;10.23;;;5.00;88.30;;;;;;5028167;28;20085;-62
2023/02/12 01:11:49;;;;;;;18.70;10.82;;;4.90;88.30;;;;;;5034112;28;20049;-62
2023/02/12 01:14:16;;;;;;;18.25;10.63;;;4.90;88.40;;;;;;5032769;28;20123;-61
2023/02/12 01:16:43;;;;;;;19.70;10.63;;;4.90;88.40;;;;;;5034393;28;20053;-61
2023/02/12 01:19:11;;;;;;;19.85;11.27;;;4.90;88.50;;;;;;5030466;28;20522;-62
2023/02/12 01:21:38;;;;;;;20.90;11.10;;;4.90;88.50;;;;;;5031332;28;20043;-62
2023/02/12 01:24:06;;;;;;;17.60;10.32;;;5.00;88.40;;;;;;5032271;28;20057;-61
2023/02/12 01:26:33;;;;;;;18.20;10.80;;;4.90;88.40;;;;;;5016930;28;20476;-61
2023/02/12 01:29:05;;;;;;;22.05;12.38;;;4.90;88.40;;;;;;5035831;28;20053;-62
2023/02/12 01:31:36;;;;;;;24.25;12.05;;;5.00;88.50;;;;;;5012356;28;20045;-62
2023/02/12 01:34:03;;;;;;;19.73;12.25;;;4.90;88.50;;;;;;5029688;28;20049;-61
2023/02/12 01:36:32;;;;;;;20.65;11.95;;;4.90;88.50;;;;;;5031579;28;20076;-62
2023/02/12 01:39:01;;;;;;;21.60;11.85;;;4.90;88.60;;;;;;5033566;28;20048;-62
2023/02/12 01:41:32;;;;;;;23.50;12.35;;;4.90;88.40;;;;;;5036880;28;20049;-62
2023/02/12 01:44:12;;;;;;;23.95;13.63;;;4.90;88.60;;;;;;5019513;28;20057;-62
2023/02/12 01:46:40;;;;;;;25.40;13.87;;;4.90;88.70;;;;;;5036982;28;20053;-58
2023/02/12 01:49:12;;;;;;;20.08;12.52;;;4.90;88.60;;;;;;5034979;28;20053;-59
2023/02/12 01:51:41;;;;;;;21.27;12.77;;;4.90;88.60;;;;;;5034734;28;20053;-59
2023/02/12 01:54:10;;;;;;;20.20;13.00;;;4.90;88.70;;;;;;5035221;28;20045;-57
2023/02/12 01:56:39;;;;;;;23.30;13.57;;;4.90;88.70;;;;;;5035982;28;20048;-59
2023/02/12 01:59:07;;;;;;;21.50;13.90;;;4.90;88.70;;;;;;5035579;28;20053;-59
2023/02/12 02:01:34;;;;;;;23.35;12.90;;;4.90;88.60;;;;;;5037544;28;20048;-59
2023/02/12 02:04:05;;;;;;;24.50;13.55;;;4.90;88.60;;;;;;5035235;28;20435;-59
2023/02/12 02:06:33;;;;;;;;;;;4.90;88.70;;;;;;5038266;28;20050;-59
2023/02/12 02:09:02;;;;;;;22.10;12.90;;;4.90;88.70;;;;;;5034362;28;19929;-59
2023/02/12 02:14:34;;;;;;;24.02;13.20;;;4.90;88.70;;;;;;5034675;28;20045;-59
2023/02/12 02:17:27;;;;;;;22.48;13.13;;;4.90;88.80;;;;;;5032266;28;20061;-58
2023/02/12 02:20:12;;;;;;;23.33;13.13;;;4.80;88.80;;;;;;5028999;28;20502;-58
2023/02/12 02:22:46;;;;;;;20.83;11.82;;;4.80;88.90;;;;;;5035037;28;20053;-60
2023/02/12 02:25:53;;;;;;;21.17;12.20;;;4.80;88.90;;;;;;5034383;28;20037;-59
2023/02/12 02:28:42;;;;;;;22.10;12.68;;;4.80;88.90;;;;;;5027865;28;20053;-59
2023/02/12 02:31:14;;;;;;;22.92;12.57;;;4.80;88.90;;;;;;5025308;28;20053;-59
2023/02/12 02:33:51;;;;;;;22.63;11.65;;;4.70;88.90;;;;;;5034796;28;20411;-59
2023/02/12 02:36:27;;;;;;;18.63;10.73;;;4.70;88.90;;;;;;5032218;28;20048;-59
2023/02/12 02:38:58;;;;;;;19.65;10.85;;;4.70;88.90;;;;;;5035518;28;20473;-58
2023/02/12 02:41:27;;;;;;;;;;;4.70;88.80;;;;;;5025934;28;20053;-59
2023/02/12 02:43:55;;;;;;;21.38;11.23;;;4.70;88.90;;;;;;5032570;28;19940;-58
2023/02/12 02:46:30;;;;;;;21.38;11.00;;;4.70;88.90;;;;;;5035490;28;20058;-58
2023/02/12 02:49:01;;;;;;;21.63;11.30;;;4.70;89.00;;;;;;5035640;28;20407;-60
2023/02/12 02:51:33;;;;;;;18.35;10.50;;;4.70;89.00;;;;;;5031656;28;20052;-59
2023/02/12 02:54:05;;;;;;;18.60;10.38;;;4.70;89.00;;;;;;5034091;28;20045;-59
2023/02/12 02:56:35;;;;;;;19.10;11.07;;;4.70;88.90;;;;;;5025523;28;20045;-57
2023/02/12 02:59:06;;;;;;;20.30;10.00;;;4.70;88.90;;;;;;5032972;28;20052;-59
2023/02/12 03:01:38;;;;;;;18.75;9.23;;;4.70;88.90;;;;;;5031368;28;20131;-58
2023/02/12 03:04:13;;;;;;;17.33;9.77;;;4.80;88.90;;;;;;5035650;28;20049;-58
2023/02/12 03:06:45;;;;;;;17.45;9.70;;;4.70;88.90;;;;;;5031974;28;20053;-59
2023/02/12 03:09:18;;;;;;;16.23;9.45;;;4.70;88.80;;;;;;5034541;28;20128;-58
2023/02/12 03:11:46;;;;;;;16.92;8.93;;;4.80;88.70;;;;;;5030722;28;20049;-59
2023/02/12 03:14:17;;;;;;;18.25;9.32;;;4.80;88.70;;;;;;5034528;28;20060;-59
2023/02/12 03:16:52;;;;;;;14.65;8.60;;;4.80;88.60;;;;;;5030393;28;20068;-59
2023/02/12 03:19:22;;;;;;;16.92;9.55;;;4.80;88.60;;;;;;5026937;28;20053;-58
2023/02/12 03:21:54;;;;;;;16.60;8.73;;;4.80;88.60;;;;;;5032399;28;20049;-58
2023/02/12 03:24:26;;;;;;;14.20;8.52;;;4.80;88.50;;;;;;5031732;28;20052;-59
2023/02/12 03:26:59;;;;;;;15.13;8.40;;;4.80;88.60;;;;;;5035976;28;20499;-60
2023/02/12 03:29:27;;;;;;;17.58;9.75;;;4.80;88.60;;;;;;5035591;28;20046;-60
2023/02/12 03:32:18;;;;;;;15.77;9.57;;;4.70;88.70;;;;;;5034836;28;20503;-61
2023/02/12 03:34:50;;;;;;;17.17;9.52;;;4.80;88.80;;;;;;5026853;28;20053;-60
2023/02/12 03:37:22;;;;;;;17.02;9.43;;;4.70;88.80;;;;;;5033307;28;20050;-61
2023/02/12 03:39:55;;;;;;;20.15;9.63;;;4.80;88.70;;;;;;5031592;28;20049;-60
2023/02/12 03:42:33;;;;;;;16.45;9.45;;;4.70;88.80;;;;;;5032331;28;20040;-60
2023/02/12 03:45:07;;;;;;;16.77;9.38;;;4.80;88.70;;;;;;5032300;28;20069;-61
2023/02/12 03:47:42;;;;;;;17.33;9.93;;;4.80;88.80;;;;;;5030125;28;20049;-60
2023/02/12 03:50:13;;;;;;;18.58;9.65;;;4.80;88.80;;;;;;5031442;28;20046;-61
2023/02/12 03:52:40;;;;;;;18.40;9.82;;;4.70;88.80;;;;;;5032230;28;20060;-60
2023/02/12 03:55:08;;;;;;;18.13;9.95;;;4.70;88.90;;;;;;5036408;28;20099;-60
2023/02/12 03:57:44;;;;;;;15.43;8.68;;;4.70;88.90;;;;;;5036353;28;20488;-60
2023/02/12 04:00:15;;;;;;;15.60;8.85;;;4.70;88.90;;;;;;5033731;28;20065;-61
2023/02/12 04:02:44;;;;;;;16.63;8.63;;;4.70;88.80;;;;;;5037966;28;20053;-60
2023/02/12 04:05:18;;;;;;;17.00;9.00;;;4.70;88.90;;;;;;5028653;28;20488;-59
2023/02/12 04:07:45;;;;;;;14.90;8.02;;;4.70;88.80;;;;;;5024479;28;20112;-60
2023/02/12 04:10:13;;;;;;;13.98;8.13;;;4.70;88.90;;;;;;5032114;28;20107;-60
2023/02/12 04:12:43;;;;;;;15.32;8.73;;;4.70;88.90;;;;;;5036990;28;20050;-60
2023/02/12 04:15:37;;;;;;;16.63;8.93;;;4.70;88.90;;;;;;5033752;28;20046;-62
2023/02/12 04:18:12;;;;;;;15.95;8.98;;;4.70;88.90;;;;;;5033447;28;20053;-60
2023/02/12 04:20:53;;;;;;;13.45;8.68;;;4.70;88.80;;;;;;5037391;28;20045;-61
2023/02/12 04:23:23;;;;;;;;;;;4.70;88.90;;;;;;5034885;28;20053;-60
2023/02/12 04:25:59;;;;;;;15.95;8.93;;;4.70;88.90;;;;;;5028647;28;19929;-63
2023/02/12 04:28:34;;;;;;;18.85;9.05;;;4.70;88.80;;;;;;5032974;28;20454;-64
2023/02/12 04:31:05;;;;;;;16.27;9.63;;;4.70;88.80;;;;;;5035607;28;20928;-64
2023/02/12 04:33:35;;;;;;;;;;;4.70;88.80;;;;;;5036967;28;20047;-64
2023/02/12 04:36:08;;;;;;;16.85;9.80;;;4.70;88.80;;;;;;5035168;28;19925;-64
2023/02/12 04:38:40;;;;;;;19.73;9.23;;;4.70;88.80;;;;;;5026480;28;22764;-63
2023/02/12 04:41:08;;;;;;;18.40;10.55;;;4.70;88.80;;;;;;5028773;28;20052;-69
2023/02/12 04:43:37;;;;;;;17.45;9.60;;;4.70;88.90;;;;;;5032988;28;20067;-68
2023/02/12 04:46:06;;;;;;;17.35;9.38;;;4.70;88.90;;;;;;5033254;28;20045;-69
2023/02/12 04:48:36;;;;;;;16.23;8.40;;;4.70;88.90;;;;;;5035787;28;20033;-67
2023/02/12 04:51:03;;;;;;;18.20;9.48;;;4.70;88.90;;;;;;5028813;28;20048;-60
2023/02/12 04:53:30;;;;;;;20.23;9.60;;;4.70;89.00;;;;;;5032393;28;20068;-61
2023/02/12 04:55:56;;;;;;;19.23;9.55;;;4.70;88.90;;;;;;5035332;28;20132;-60
2023/02/12 04:58:23;;;;;;;18.30;9.60;;;4.70;88.80;;;;;;5030052;28;20041;-61
2023/02/12 05:00:51;;;;;;;15.93;9.10;;;4.70;88.80;;;;;;5034830;28;20521;-60
2023/02/12 05:03:19;;;;;;;16.95;9.10;;;4.70;88.80;;;;;;5028855;28;20607;-60
2023/02/12 05:05:47;;;;;;;16.30;8.80;;;4.70;88.80;;;;;;5033969;28;20091;-67
2023/02/12 05:08:14;;;;;;;17.45;9.27;;;4.70;88.80;;;;;;5034489;28;20037;-67
2023/02/12 05:10:41;;;;;;;20.30;8.90;;;4.70;88.90;;;;;;5037705;28;20061;-67
2023/02/12 05:13:08;;;;;;;16.90;9.05;;;4.70;88.80;;;;;;5030382;28;20111;-69
2023/02/12 05:15:35;;;;;;;18.52;8.27;;;4.70;88.90;;;;;;5032575;28;20044;-67
2023/02/12 05:18:02;;;;;;;14.68;8.25;;;4.70;88.90;;;;;;5031357;28;20061;-67
2023/02/12 05:20:28;;;;;;;15.68;8.68;;;4.70;88.90;;;;;;5031679;28;20496;-68
2023/02/12 05:22:57;;;;;;;14.20;8.20;;;4.70;88.90;;;;;;5036602;28;20059;-67
2023/02/12 05:25:23;;;;;;;15.85;8.35;;;4.70;88.90;;;;;;5034194;28;20045;-68
2023/02/12 05:27:50;;;;;;;15.73;8.80;;;4.70;88.90;;;;;;5039451;28;20127;-66
2023/02/12 05:30:17;;;;;;;15.63;8.13;;;4.70;88.90;;;;;;5037425;28;20050;-68
2023/02/12 05:32:44;;;;;;;16.85;8.70;;;4.70;88.90;;;;;;5038934;28;20056;-68
2023/02/12 05:35:11;;;;;;;16.27;8.70;;;4.80;88.90;;;;;;5035751;28;20561;-66
2023/02/12 05:37:38;;;;;;;14.55;7.82;;;4.70;88.80;;;;;;5035620;28;20415;-66
2023/02/12 05:40:08;;;;;;;18.05;8.18;;;4.70;88.80;;;;;;5034435;28;20053;-67
2023/02/12 05:42:35;;;;;;;20.53;8.57;;;4.70;88.90;;;;;;5035365;28;20139;-66
2023/02/12 05:45:02;;;;;;;17.33;8.45;;;4.70;89.00;;;;;;5034965;28;20052;-68
2023/02/12 05:47:28;;;;;;;16.73;8.85;;;4.70;88.90;;;;;;5028084;28;20587;-66
2023/02/12 05:49:55;;;;;;;15.43;8.35;;;4.70;88.90;;;;;;5035453;28;20080;-66
2023/02/12 05:52:22;;;;;;;15.25;8.60;;;4.70;88.90;;;;;;5033064;28;20046;-67
2023/02/12 05:54:50;;;;;;;16.95;9.02;;;4.70;88.90;;;;;;5035659;28;20045;-67
2023/02/12 05:57:18;;;;;;;17.92;8.70;;;4.70;88.90;;;;;;5034351;28;20107;-67
2023/02/12 05:59:45;;;;;;;17.65;9.38;;;4.80;88.90;;;;;;5033729;28;20096;-66
2023/02/12 06:02:12;;;;;;;18.15;9.23;;;4.80;88.90;;;;;;5032879;28;20081;-65
2023/02/12 06:04:39;;;;;;;16.45;8.68;;;4.70;88.90;;;;;;5030236;28;20045;-66
2023/02/12 06:07:06;;;;;;;17.15;9.52;;;4.70;88.90;;;;;;5035179;28;20049;-66
2023/02/12 06:09:33;;;;;;;16.05;8.75;;;4.70;88.90;;;;;;5034170;28;20073;-68
2023/02/12 06:12:01;;;;;;;17.20;8.80;;;4.70;88.90;;;;;;5027684;28;20049;-67
2023/02/12 06:14:35;;;;;;;15.07;7.45;;;4.80;88.90;;;;;;5031143;28;20091;-67
2023/02/12 06:17:02;;;;;;;16.75;9.40;;;4.80;88.90;;;;;;5034918;28;20037;-66
2023/02/12 06:19:29;;;;;;;19.30;9.75;;;4.80;88.80;;;;;;5035423;28;20057;-67
2023/02/12 06:21:56;;;;;;;15.02;8.07;;;4.80;88.80;;;;;;5034419;28;20057;-67
2023/02/12 06:24:23;;;;;;;18.50;8.98;;;4.80;88.80;;;;;;5031169;28;20052;-67
2023/02/12 06:26:53;;;;;;;13.98;8.50;;;4.80;88.80;;;;;;5035694;28;20108;-67
2023/02/12 06:29:21;;;;;;;15.90;8.90;;;4.70;88.80;;;;;;5033352;28;20500;-68
2023/02/12 06:31:49;;;;;;;14.63;8.40;;;4.70;88.80;;;;;;5036852;28;20053;-69
2023/02/12 06:34:16;;;;;;;16.67;9.50;;;4.80;88.90;;;;;;5031029;28;20057;-67
2023/02/12 06:36:45;;;;;;;16.38;8.18;;;4.70;88.90;;;;;;5030224;28;20060;-67
2023/02/12 06:39:13;;;;;;;16.98;8.80;;;4.70;88.90;;;;;;5028709;28;20052;-67
2023/02/12 06:41:41;;;;;;;17.20;9.48;;;4.80;89.00;;;;;;5033534;28;20865;-68
2023/02/12 06:44:08;;;;;;;14.73;7.50;;;4.70;88.90;;;;;;5034485;28;20431;-66
2023/02/12 06:46:35;;;;;;;15.48;7.88;;;4.70;88.90;;;;;;5029354;28;20068;-68
2023/02/12 06:49:03;;;;;;;16.35;8.75;;;4.80;89.00;;;;;;5030234;28;20522;-66
2023/02/12 06:51:31;;;;;;;14.63;8.10;;;4.80;88.90;;;;;;5032043;28;20057;-66
2023/02/12 06:53:58;;;;;;;13.60;7.93;;;4.80;88.90;;;;;;5033886;28;20554;-67
2023/02/12 06:56:26;;;;;;;17.23;8.82;;;4.80;88.90;;;;;;5034080;28;20056;-68
2023/02/12 06:58:55;;;;;;;15.95;8.38;;;4.70;89.00;;;;;;5034342;28;20057;-67
2023/02/12 07:01:24;;;;;;;18.45;9.05;;;4.80;89.00;;;;;;5029515;28;20634;-68
2023/02/12 07:03:53;;;;;;;18.38;9.05;;;4.80;89.10;;;;;;5036748;28;20071;-67
2023/02/12 07:06:22;;;;;;;23.33;11.07;;;4.70;89.10;;;;;;5034847;28;20075;-67
2023/02/12 07:08:50;;;;;;;22.38;12.02;;;4.70;89.10;;;;;;5030376;28;20057;-67
2023/02/12 07:11:17;;;;;;;27.73;13.35;;;4.70;89.10;;;;;;5031563;28;20041;-67
2023/02/12 07:13:45;;;;;;;24.30;12.93;;;4.80;89.10;;;;;;5030975;28;20832;-67
2023/02/12 07:16:13;;;;;;;26.08;13.35;;;4.80;89.10;;;;;;5032366;28;20061;-68
2023/02/12 07:18:41;;;;;;;23.23;12.02;;;4.70;89.20;;;;;;5033359;28;20053;-67
2023/02/12 07:21:09;;;;;;;23.80;12.40;;;4.80;89.20;;;;;;5036737;28;20072;-67
2023/02/12 07:23:42;;;;;;;19.75;11.25;;;4.80;89.20;;;;;;5034088;28;20045;-66
2023/02/12 07:26:11;;;;;;;22.20;10.95;;;4.80;89.20;;;;;;5030358;28;20457;-66
2023/02/12 07:28:39;;;;;;;21.05;11.60;;;4.80;89.20;;;;;;5035736;28;20049;-67
2023/02/12 07:31:10;;;;;;;23.05;11.07;;;4.80;89.20;;;;;;5036564;28;20056;-67
2023/02/12 07:33:39;;;;;;;19.33;10.77;;;4.80;89.10;;;;;;5035414;28;20045;-67
2023/02/12 07:36:10;;;;;;;21.10;11.60;;;4.90;89.10;;;;;;5035975;28;20091;-66
2023/02/12 07:38:38;;;;;;;22.48;11.40;;;4.90;89.10;;;;;;5037431;28;20053;-67
2023/02/12 07:41:10;;;;;;;17.80;11.32;;;4.90;89.10;;;;;;5035876;28;20555;-67
2023/02/12 07:43:38;;;;;;;21.70;10.98;;;4.90;89.20;;;;;;5033113;28;20544;-67
2023/02/12 07:46:10;;;;;;;22.50;11.20;;;4.90;89.20;;;;;;5035166;28;20045;-67
2023/02/12 07:48:37;;;;;;;22.58;11.75;;;4.90;89.30;;;;;;5034335;28;20121;-67
2023/02/12 07:51:06;;;;;;;21.67;11.93;;;4.90;89.30;;;;;;5035736;28;20057;-68
2023/02/12 07:53:33;;;;;;;19.40;11.13;;;4.90;89.40;;;;;;5033648;28;20931;-67
2023/02/12 07:56:13;;;;;;;20.90;11.38;;;4.90;89.50;;;;;;5033383;28;20381;-70
2023/02/12 07:58:41;;;;;;;22.40;12.07;;;4.90;89.50;;;;;;5034084;28;20626;-71
2023/02/12 08:01:16;;;;;;;20.05;10.93;;;4.90;89.60;;;;;;5034562;28;20057;-71
2023/02/12 08:03:43;;;;;;;22.10;11.40;;;4.90;89.80;;;;;;5037533;28;20514;-71
2023/02/12 08:06:12;;;;;;;23.08;12.73;;;4.90;89.80;;;;;;5034726;28;20049;-66
2023/02/12 08:08:39;;;;;;;20.65;12.05;;;4.90;89.80;;;;;;5033096;28;20041;-68
2023/02/12 08:11:07;;;;;;;19.80;11.10;;;4.90;89.70;;;;;;5034971;28;20061;-62
2023/02/12 08:13:36;;;;;;;19.50;12.13;;;5.00;89.90;;;;;;5031958;28;20495;-63
2023/02/12 08:16:05;;;;;;;21.67;12.20;;;5.00;90.00;;;;;;5033206;28;20059;-71
2023/02/12 08:18:32;;;;;;;20.95;11.60;;;5.00;90.10;;;;;;5035991;28;20502;-71
2023/02/12 08:21:04;;;;;;;25.42;12.30;;;5.00;90.00;;;;;;5037424;28;20056;-67
2023/02/12 08:23:31;;;;;;;20.75;12.75;;;5.00;90.10;;;;;;5028272;28;20124;-67
2023/02/12 08:26:06;;;;;;;22.67;13.18;;;5.00;90.00;;;;;;5035437;28;20056;-67
2023/02/12 08:28:33;;;;;;;21.67;12.77;;;5.00;90.20;;;;;;5031238;28;20462;-66
2023/02/12 08:31:02;;;;;;;23.90;13.50;;;5.00;90.20;;;;;;5035457;28;20559;-68
2023/02/12 08:33:29;;;;;;;22.58;13.40;;;5.00;90.30;;;;;;5030726;28;20041;-68
2023/02/12 08:36:02;;;;;;;22.55;13.27;;;5.00;90.40;;;;;;5031682;28;20041;-68
2023/02/12 08:38:29;;;;;;;18.75;12.55;;;5.10;90.30;;;;;;5034256;28;20042;-67
2023/02/12 08:40:56;;;;;;;23.90;13.48;;;5.10;90.30;;;;;;5033527;28;20072;-68
2023/02/12 08:43:23;;;;;;;23.42;14.35;;;5.10;90.30;;;;;;5033282;28;20048;-66
2023/02/12 08:45:49;;;;;;;23.88;14.00;;;5.10;90.30;;;;;;5035999;28;20049;-70
2023/02/12 08:48:19;;;;;;;24.20;15.32;;;5.20;90.30;;;;;;5034519;28;20040;-70
2023/02/12 08:50:47;;;;;;;23.10;15.57;;;5.20;90.40;;;;;;4991368;28;1201449;-71
2023/02/12 08:53:13;;;;;;;27.27;16.60;;;5.20;90.40;;;;;;5036401;28;20050;-71
2023/02/12 08:55:47;;;;;;;26.17;15.60;;;5.20;90.40;;;;;;5035358;28;20142;-71
2023/02/12 08:58:17;;;;;;;28.00;16.55;;;5.20;90.50;;;;;;5034054;28;20049;-70
2023/02/12 09:00:44;;;;;;;25.33;15.55;;;5.20;90.50;;;;;;5035333;28;20129;-70
2023/02/12 09:03:10;;;;;;;25.65;16.35;;;5.30;90.50;;;;;;5032201;28;20044;-70
2023/02/12 09:05:41;;;;;;;28.25;15.55;;;5.30;90.30;;;;;;5034207;28;20048;-70
2023/02/12 09:08:08;;;;;;;28.33;15.82;;;5.30;90.40;;;;;;5034969;28;20049;-70
2023/02/12 09:10:38;;;;;;;27.42;15.55;;;5.30;90.50;;;;;;5033023;28;20136;-71
2023/02/12 09:13:05;;;;;;;29.42;17.77;;;5.40;90.50;;;;;;5032825;28;20045;-69
2023/02/12 09:15:36;;;;;;;27.90;17.13;;;5.40;90.50;;;;;;5032741;28;20041;-69
2023/02/12 09:18:03;;;;;;;25.92;16.25;;;5.40;90.40;;;;;;5035211;28;20083;-72
2023/02/12 09:20:30;;;;;;;30.23;16.95;;;5.50;90.40;;;;;;5039097;28;20103;-70
2023/02/12 09:23:00;;;;;;;27.75;17.05;;;5.60;90.40;;;;;;5034145;28;20548;-71
2023/02/12 09:25:28;;;;;;;29.75;18.67;;;5.60;90.50;;;;;;5029921;28;20068;-69
2023/02/12 09:27:55;;;;;;;28.70;17.73;;;5.70;90.50;;;;;;5034717;28;20056;-70
2023/02/12 09:30:22;;;;;;;30.52;18.70;;;5.70;90.50;;;;;;5034804;28;20045;-71
2023/02/12 09:32:51;;;;;;;29.63;18.35;;;5.70;90.60;;;;;;5034341;28;20063;-70
2023/02/12 09:35:18;;;;;;;28.48;17.10;;;5.80;90.50;;;;;;5031759;28;20053;-69
2023/02/12 09:37:45;;;;;;;32.08;19.55;;;5.80;90.50;;;;;;5035104;28;20079;-70
2023/02/12 09:40:21;;;;;;;31.35;19.13;;;5.80;90.50;;;;;;5031180;28;20124;-68
2023/02/12 09:43:03;;;;;;;33.95;19.73;;;5.80;90.50;;;;;;5036046;28;20062;-70
2023/02/12 09:45:34;;;;;;;30.80;20.08;;;5.90;90.50;;;;;;5033572;28;20061;-62
2023/02/12 09:48:12;;;;;;;37.75;21.15;;;5.90;90.60;;;;;;5029984;28;20148;-60
2023/02/12 09:50:45;;;;;;;34.88;20.45;;;5.90;90.70;;;;;;5030730;28;20041;-63
2023/02/12 09:53:16;;;;;;;36.55;20.73;;;6.00;90.60;;;;;;5033379;28;20061;-63
2023/02/12 09:55:45;;;;;;;;;;;6.00;90.60;;;;;;5036606;28;20392;-63
2023/02/12 09:58:16;;;;;;;34.00;20.13;;;6.00;90.70;;;;;;5029904;28;19929;-62
2023/02/12 10:00:43;;;;;;;32.33;20.00;;;6.10;90.50;;;;;;5037355;28;20053;-63
2023/02/12 10:03:17;;;;;;;35.50;21.58;;;6.10;90.10;;;;;;5031389;28;20140;-61
2023/02/12 10:05:50;;;;;;;35.92;21.30;;;6.20;90.70;;;;;;5032925;28;20164;-62
2023/02/12 10:08:32;;;;;;;34.83;21.75;;;6.20;90.70;;;;;;5033087;28;20418;-61
2023/02/12 10:11:19;;;;;;;34.33;20.10;;;6.30;90.60;;;;;;5036939;28;20044;-63
2023/02/12 10:13:54;;;;;;;35.20;21.17;;;6.40;90.60;;;;;;5034496;28;20053;-62
2023/02/12 10:16:41;;;;;;;35.72;21.25;;;6.50;90.50;;;;;;5032289;28;20483;-62
2023/02/12 10:19:23;;;;;;;35.25;19.77;;;6.60;90.60;;;;;;5030365;28;20050;-62
2023/02/12 10:21:59;;;;;;;35.83;20.65;;;6.60;90.60;;;;;;5032023;28;20078;-62
2023/02/12 10:24:58;;;;;;;39.10;19.92;;;6.70;90.60;;;;;;5033271;28;20081;-62
2023/02/12 10:27:38;;;;;;;40.97;20.25;;;6.80;90.60;;;;;;5030683;28;20699;-62
2023/02/12 10:30:15;;;;;;;36.17;19.92;;;6.90;90.20;;;;;;5032414;28;20062;-62
2023/02/12 10:32:45;;;;;;;44.63;20.92;;;6.90;90.20;;;;;;5033490;28;20483;-63
2023/02/12 10:35:18;;;;;;;36.65;20.15;;;7.00;90.30;;;;;;5036011;28;20501;-62
2023/02/12 10:37:50;;;;;;;37.53;20.15;;;7.00;90.20;;;;;;5032902;28;20511;-62
2023/02/12 10:40:23;;;;;;;36.97;20.50;;;7.00;90.50;;;;;;5031799;28;20411;-63
2023/02/12 10:42:52;;;;;;;40.88;21.15;;;7.00;90.40;;;;;;5029397;28;20045;-63
2023/02/12 10:45:21;;;;;;;41.17;21.25;;;7.00;90.60;;;;;;5034755;28;20144;-61
2023/02/12 10:47:52;;;;;;;38.00;20.33;;;7.00;90.70;;;;;;5030242;28;20052;-63
2023/02/12 10:50:28;;;;;;;39.63;21.20;;;7.00;90.70;;;;;;5032481;28;20056;-61
2023/02/12 10:52:59;;;;;;;40.65;21.13;;;7.00;90.80;;;;;;5034252;28;20088;-62
2023/02/12 10:55:29;;;;;;;35.97;19.27;;;7.00;90.70;;;;;;5028466;28;20108;-63
2023/02/12 10:57:58;;;;;;;42.03;21.30;;;7.00;90.60;;;;;;5034604;28;20049;-64
2023/02/12 11:00:30;;;;;;;39.77;20.90;;;7.10;90.50;;;;;;5030432;28;20058;-61
2023/02/12 11:03:04;;;;;;;38.88;20.33;;;7.20;90.60;;;;;;5028638;28;20052;-63
2023/02/12 11:05:34;;;;;;;40.53;21.30;;;7.20;90.50;;;;;;5027875;28;20132;-63
2023/02/12 11:08:01;;;;;;;39.13;20.70;;;7.30;90.30;;;;;;5033490;28;20045;-62
2023/02/12 11:10:30;;;;;;;35.40;19.33;;;7.40;90.10;;;;;;5029187;28;20060;-61
2023/02/12 11:13:04;;;;;;;37.55;19.40;;;7.40;90.00;;;;;;5033731;28;20461;-63
2023/02/12 11:15:37;;;;;;;39.38;19.70;;;7.40;89.90;;;;;;5034744;28;20052;-63
2023/02/12 11:18:07;;;;;;;35.08;18.00;;;7.50;89.90;;;;;;5033742;28;20049;-63
2023/02/12 11:20:39;;;;;;;32.55;16.83;;;7.50;90.10;;;;;;5028827;28;20470;-62
2023/02/12 11:23:24;;;;;;;33.53;17.23;;;7.60;89.80;;;;;;5035321;28;20411;-62
2023/02/12 11:25:57;;;;;;;31.48;16.65;;;7.60;90.10;;;;;;5033689;28;20059;-66
2023/02/12 11:28:25;;;;;;;29.35;16.52;;;7.60;89.70;;;;;;5033507;28;20574;-65
2023/02/12 11:30:55;;;;;;;29.02;16.30;;;7.60;89.90;;;;;;5031405;28;20099;-65
2023/02/12 11:33:25;;;;;;;32.20;16.38;;;7.60;89.90;;;;;;5024893;28;20056;-66
2023/02/12 11:35:54;;;;;;;29.83;15.57;;;7.60;89.70;;;;;;5029674;28;20108;-68
2023/02/12 11:38:26;;;;;;;31.20;16.52;;;7.60;89.90;;;;;;5025718;28;20053;-69
2023/02/12 11:40:57;;;;;;;29.27;15.57;;;7.60;89.90;;;;;;5033208;28;20146;-57
2023/02/12 11:43:28;;;;;;;28.60;14.73;;;7.60;90.10;;;;;;5030124;28;20053;-58
2023/02/12 11:45:56;;;;;;;30.02;15.23;;;7.60;90.10;;;;;;5033005;28;20048;-57
2023/02/12 11:48:27;;;;;;;27.35;15.80;;;7.70;90.00;;;;;;5034897;28;20065;-60
2023/02/12 11:50:56;;;;;;;26.73;15.38;;;7.70;90.10;;;;;;5030825;28;20061;-59
2023/02/12 11:53:27;;;;;;;26.98;15.20;;;7.80;90.00;;;;;;5032836;28;20055;-58
2023/02/12 11:55:58;;;;;;;;;;;7.80;89.70;;;;;;5033190;28;20132;-59
2023/02/12 11:58:28;;;;;;;27.77;14.98;;;7.90;89.60;;;;;;5032849;28;20016;-58
2023/02/12 12:01:00;;;;;;;26.42;14.57;;;8.00;89.30;;;;;;5035126;28;20447;-58
2023/02/12 12:03:32;;;;;;;28.92;16.08;;;8.10;89.10;;;;;;5029775;28;20041;-58
2023/02/12 12:06:05;;;;;;;26.95;15.18;;;8.20;89.50;;;;;;5030591;28;20059;-58
2023/02/12 12:08:39;;;;;;;26.67;15.65;;;8.20;89.00;;;;;;5028890;28;20042;-58
2023/02/12 12:11:12;;;;;;;25.60;14.80;;;8.20;88.90;;;;;;5033460;28;20080;-59
2023/02/12 12:13:52;;;;;;;25.67;14.35;;;8.30;88.70;;;;;;5032250;28;20112;-59
2023/02/12 12:22:05;;;;;;;19.80;10.88;;;8.40;88.70;;;;;;5028248;28;20135;-60
2023/02/12 12:24:41;;;;;;;20.60;10.48;;;8.50;88.60;;;;;;5031316;28;20049;-59
2023/02/12 12:28:01;;;;;;;16.83;9.57;;;8.50;88.60;;;;;;5038207;28;20046;-70
2023/02/12 12:30:20;;;;;;;14.27;8.20;;;8.50;88.80;;;;;;5035595;28;20067;-69
2023/02/12 12:32:48;;;;;;;14.15;8.23;;;8.40;88.70;;;;;;5036693;28;20049;-68
2023/02/12 12:35:25;;;;;;;16.55;8.82;;;8.40;88.70;;;;;;5030247;28;20067;-69
2023/02/12 12:37:57;;;;;;;15.15;8.20;;;8.50;88.40;;;;;;5033740;28;20368;-61
2023/02/12 12:40:42;;;;;;;12.73;8.02;;;8.50;88.60;;;;;;5031772;28;20060;-62
2023/02/12 12:43:13;;;;;;;15.25;7.70;;;8.50;88.40;;;;;;5034408;28;20122;-58
2023/02/12 12:46:23;;;;;;;14.20;7.97;;;8.50;88.20;;;;;;5032339;28;20633;-59
2023/02/12 12:49:18;;;;;;;15.75;8.27;;;8.50;88.60;;;;;;5033591;28;20069;-58
2023/02/12 12:52:05;;;;;;;17.88;7.80;;;8.60;88.30;;;;;;5035365;28;20064;-58
2023/02/12 12:54:49;;;;;;;12.95;7.05;;;8.60;88.30;;;;;;5035391;28;20041;-58
2023/02/12 12:57:27;;;;;;;11.95;6.60;;;8.60;88.20;;;;;;5029554;28;20427;-70
2023/02/12 13:00:08;;;;;;;13.02;7.05;;;8.60;88.00;;;;;;5033785;28;20141;-69
2023/02/12 13:03:01;;;;;;;10.75;5.68;;;8.60;87.90;;;;;;5033026;28;20058;-66
2023/02/12 13:06:16;;;;;;;10.70;5.50;;;8.60;87.90;;;;;;5032863;28;20048;-67
2023/02/12 13:08:59;;;;;;;8.30;4.78;;;8.70;87.70;;;;;;5032654;28;20045;-65
2023/02/12 13:11:38;;;;;;;9.85;5.32;;;8.70;87.60;;;;;;5032394;28;20063;-64